sensor_id;sensor_type;location;lat;lon;timestamp;temperature;humidity
21698;DHT22;11010;49.548;11.926;2024-02-21T00:01:23;6.50;99.90
21698;DHT22;11010;49.548;11.926;2024-02-21T00:03:50;6.40;99.90
21698;DHT22;11010;49.548;11.926;2024-02-21T00:06:17;6.40;99.90
21698;DHT22;11010;49.548;11.926;2024-02-21T00:08:45;6.40;99.90
21698;DHT22;11010;49.548;11.926;2024-02-21T00:11:12;6.40;99.90
21698;DHT22;11010;49.548;11.926;2024-02-21T00:13:39;6.40;99.90
21698;DHT22;11010;49.548;11.926;2024-02-21T00:16:07;6.40;99.90
21698;DHT22;11010;49.548;11.926;2024-02-21T00:18:34;6.40;99.90
21698;DHT22;11010;49.548;11.926;2024-02-21T00:21:01;6.40;99.90
21698;DHT22;11010;49.548;11.926;2024-02-21T00:23:28;6.40;99.90
21698;DHT22;11010;49.548;11.926;2024-02-21T00:25:56;6.40;99.90
21698;DHT22;11010;49.548;11.926;2024-02-21T00:28:23;6.40;99.90
21698;DHT22;11010;49.548;11.926;2024-02-21T00:30:50;6.40;99.90
21698;DHT22;11010;49.548;11.926;2024-02-21T00:33:20;6.30;99.90
21698;DHT22;11010;49.548;11.926;2024-02-21T00:35:47;6.30;99.90
21698;DHT22;11010;49.548;11.926;2024-02-21T00:38:14;6.30;99.90
21698;DHT22;11010;49.548;11.926;2024-02-21T00:40:41;6.30;99.90
21698;DHT22;11010;49.548;11.926;2024-02-21T00:43:09;6.30;99.90
21698;DHT22;11010;49.548;11.926;2024-02-21T00:45:36;6.30;99.90
21698;DHT22;11010;49.548;11.926;2024-02-21T00:48:04;6.30;99.90
21698;DHT22;11010;49.548;11.926;2024-02-21T00:50:31;6.30;99.90
21698;DHT22;11010;49.548;11.926;2024-02-21T00:52:59;6.30;99.90
21698;DHT22;11010;49.548;11.926;2024-02-21T00:55:26;6.30;99.90
21698;DHT22;11010;49.548;11.926;2024-02-21T00:57:53;6.30;99.90
21698;DHT22;11010;49.548;11.926;2024-02-21T01:00:20;6.30;99.90
21698;DHT22;11010;49.548;11.926;2024-02-21T01:02:47;6.30;99.90
21698;DHT22;11010;49.548;11.926;2024-02-21T01:05:19;6.30;99.90
21698;DHT22;11010;49.548;11.926;2024-02-21T01:07:47;6.30;99.90
21698;DHT22;11010;49.548;11.926;2024-02-21T01:10:14;6.20;99.90
21698;DHT22;11010;49.548;11.926;2024-02-21T01:12:41;6.30;99.90
21698;DHT22;11010;49.548;11.926;2024-02-21T01:15:08;6.30;99.90
21698;DHT22;11010;49.548;11.926;2024-02-21T01:17:37;6.20;99.90
21698;DHT22;11010;49.548;11.926;2024-02-21T01:20:04;6.20;99.90
21698;DHT22;11010;49.548;11.926;2024-02-21T01:22:33;6.20;99.90
21698;DHT22;11010;49.548;11.926;2024-02-21T01:25:00;6.10;99.90
21698;DHT22;11010;49.548;11.926;2024-02-21T01:27:27;6.20;99.90
21698;DHT22;11010;49.548;11.926;2024-02-21T01:29:54;6.10;99.90
21698;DHT22;11010;49.548;11.926;2024-02-21T01:32:22;6.20;99.90
21698;DHT22;11010;49.548;11.926;2024-02-21T01:34:51;6.10;99.90
21698;DHT22;11010;49.548;11.926;2024-02-21T01:37:19;6.10;99.90
21698;DHT22;11010;49.548;11.926;2024-02-21T01:39:46;6.00;99.90
21698;DHT22;11010;49.548;11.926;2024-02-21T01:42:13;6.00;99.90
21698;DHT22;11010;49.548;11.926;2024-02-21T01:44:40;6.00;99.90
21698;DHT22;11010;49.548;11.926;2024-02-21T01:47:08;6.00;99.90
21698;DHT22;11010;49.548;11.926;2024-02-21T01:49:35;6.00;99.90
21698;DHT22;11010;49.548;11.926;2024-02-21T01:52:03;6.00;99.90
21698;DHT22;11010;49.548;11.926;2024-02-21T01:54:31;6.00;99.90
21698;DHT22;11010;49.548;11.926;2024-02-21T01:56:58;6.00;99.90
21698;DHT22;11010;49.548;11.926;2024-02-21T01:59:26;6.10;99.90
21698;DHT22;11010;49.548;11.926;2024-02-21T02:01:55;6.10;99.90
21698;DHT22;11010;49.548;11.926;2024-02-21T02:04:24;6.00;99.90
21698;DHT22;11010;49.548;11.926;2024-02-21T02:06:54;6.00;99.90
21698;DHT22;11010;49.548;11.926;2024-02-21T02:09:21;5.90;99.90
21698;DHT22;11010;49.548;11.926;2024-02-21T02:11:48;5.90;99.90
21698;DHT22;11010;49.548;11.926;2024-02-21T02:14:16;6.00;99.90
21698;DHT22;11010;49.548;11.926;2024-02-21T02:16:49;6.00;99.90
21698;DHT22;11010;49.548;11.926;2024-02-21T02:19:16;6.00;99.90
21698;DHT22;11010;49.548;11.926;2024-02-21T02:21:50;5.90;99.90
21698;DHT22;11010;49.548;11.926;2024-02-21T02:24:24;6.00;99.90
21698;DHT22;11010;49.548;11.926;2024-02-21T02:30:12;5.90;99.90
21698;DHT22;11010;49.548;11.926;2024-02-21T02:32:39;6.00;99.90
21698;DHT22;11010;49.548;11.926;2024-02-21T02:35:10;6.00;99.90
21698;DHT22;11010;49.548;11.926;2024-02-21T02:37:37;5.90;99.90
21698;DHT22;11010;49.548;11.926;2024-02-21T02:40:07;6.00;99.90
21698;DHT22;11010;49.548;11.926;2024-02-21T02:42:34;5.90;99.90
21698;DHT22;11010;49.548;11.926;2024-02-21T02:45:01;5.90;99.90
21698;DHT22;11010;49.548;11.926;2024-02-21T02:47:29;5.80;99.90
21698;DHT22;11010;49.548;11.926;2024-02-21T02:49:56;6.00;99.90
21698;DHT22;11010;49.548;11.926;2024-02-21T02:52:23;5.90;99.90
21698;DHT22;11010;49.548;11.926;2024-02-21T02:54:50;5.90;99.90
21698;DHT22;11010;49.548;11.926;2024-02-21T02:57:19;6.00;99.90
21698;DHT22;11010;49.548;11.926;2024-02-21T02:59:49;6.00;99.90
21698;DHT22;11010;49.548;11.926;2024-02-21T03:02:17;6.10;99.90
21698;DHT22;11010;49.548;11.926;2024-02-21T03:04:44;5.90;99.90
21698;DHT22;11010;49.548;11.926;2024-02-21T03:07:13;5.90;99.90
21698;DHT22;11010;49.548;11.926;2024-02-21T03:09:41;6.10;99.90
21698;DHT22;11010;49.548;11.926;2024-02-21T03:12:11;6.10;99.90
21698;DHT22;11010;49.548;11.926;2024-02-21T03:14:39;6.10;99.90
21698;DHT22;11010;49.548;11.926;2024-02-21T03:17:06;6.10;99.90
21698;DHT22;11010;49.548;11.926;2024-02-21T03:19:33;6.00;99.90
21698;DHT22;11010;49.548;11.926;2024-02-21T03:22:00;6.10;99.90
21698;DHT22;11010;49.548;11.926;2024-02-21T03:24:27;6.00;99.90
21698;DHT22;11010;49.548;11.926;2024-02-21T03:26:57;6.00;99.90
21698;DHT22;11010;49.548;11.926;2024-02-21T03:29:25;6.10;99.90
21698;DHT22;11010;49.548;11.926;2024-02-21T03:31:53;6.00;99.90
21698;DHT22;11010;49.548;11.926;2024-02-21T03:34:20;6.00;99.90
21698;DHT22;11010;49.548;11.926;2024-02-21T03:36:48;6.10;99.90
21698;DHT22;11010;49.548;11.926;2024-02-21T03:39:15;6.10;99.90
21698;DHT22;11010;49.548;11.926;2024-02-21T03:41:42;6.10;99.90
21698;DHT22;11010;49.548;11.926;2024-02-21T03:44:10;6.00;99.90
21698;DHT22;11010;49.548;11.926;2024-02-21T03:46:37;6.10;99.90
21698;DHT22;11010;49.548;11.926;2024-02-21T03:49:05;6.10;99.90
21698;DHT22;11010;49.548;11.926;2024-02-21T03:51:32;6.10;99.90
21698;DHT22;11010;49.548;11.926;2024-02-21T03:53:59;6.00;99.90
21698;DHT22;11010;49.548;11.926;2024-02-21T03:56:26;6.10;99.90
21698;DHT22;11010;49.548;11.926;2024-02-21T03:58:54;6.10;99.90
21698;DHT22;11010;49.548;11.926;2024-02-21T04:01:22;6.10;99.90
21698;DHT22;11010;49.548;11.926;2024-02-21T04:03:49;6.10;99.90
21698;DHT22;11010;49.548;11.926;2024-02-21T04:06:17;6.00;99.90
21698;DHT22;11010;49.548;11.926;2024-02-21T04:08:45;6.00;99.90
21698;DHT22;11010;49.548;11.926;2024-02-21T04:11:12;6.10;99.90
21698;DHT22;11010;49.548;11.926;2024-02-21T04:13:39;6.10;99.90
21698;DHT22;11010;49.548;11.926;2024-02-21T04:16:07;6.20;99.90
21698;DHT22;11010;49.548;11.926;2024-02-21T04:18:34;6.10;99.90
21698;DHT22;11010;49.548;11.926;2024-02-21T04:21:01;6.10;99.90
21698;DHT22;11010;49.548;11.926;2024-02-21T04:23:28;6.10;99.90
21698;DHT22;11010;49.548;11.926;2024-02-21T04:25:56;6.10;99.90
21698;DHT22;11010;49.548;11.926;2024-02-21T04:36:07;6.10;99.90
21698;DHT22;11010;49.548;11.926;2024-02-21T04:38:34;6.00;99.90
21698;DHT22;11010;49.548;11.926;2024-02-21T04:41:01;6.00;99.90
21698;DHT22;11010;49.548;11.926;2024-02-21T04:43:28;6.00;99.90
21698;DHT22;11010;49.548;11.926;2024-02-21T04:45:56;6.00;99.90
21698;DHT22;11010;49.548;11.926;2024-02-21T04:48:23;6.10;99.90
21698;DHT22;11010;49.548;11.926;2024-02-21T04:50:50;6.00;99.90
21698;DHT22;11010;49.548;11.926;2024-02-21T04:53:17;6.10;99.90
21698;DHT22;11010;49.548;11.926;2024-02-21T04:55:46;6.00;99.90
21698;DHT22;11010;49.548;11.926;2024-02-21T04:58:14;6.00;99.90
21698;DHT22;11010;49.548;11.926;2024-02-21T05:00:41;6.00;99.90
21698;DHT22;11010;49.548;11.926;2024-02-21T05:03:09;6.00;99.90
21698;DHT22;11010;49.548;11.926;2024-02-21T05:05:36;6.00;99.90
21698;DHT22;11010;49.548;11.926;2024-02-21T05:08:04;6.10;99.90
21698;DHT22;11010;49.548;11.926;2024-02-21T05:10:31;6.00;99.90
21698;DHT22;11010;49.548;11.926;2024-02-21T05:12:59;6.00;99.90
21698;DHT22;11010;49.548;11.926;2024-02-21T05:15:26;6.00;99.90
21698;DHT22;11010;49.548;11.926;2024-02-21T05:17:53;6.00;99.90
21698;DHT22;11010;49.548;11.926;2024-02-21T05:20:21;6.00;99.90
21698;DHT22;11010;49.548;11.926;2024-02-21T05:22:48;5.90;99.90
21698;DHT22;11010;49.548;11.926;2024-02-21T05:25:15;6.00;99.90
21698;DHT22;11010;49.548;11.926;2024-02-21T05:27:43;6.00;99.90
21698;DHT22;11010;49.548;11.926;2024-02-21T05:30:11;6.00;99.90
21698;DHT22;11010;49.548;11.926;2024-02-21T05:32:38;6.00;99.90
21698;DHT22;11010;49.548;11.926;2024-02-21T05:35:06;5.80;99.90
21698;DHT22;11010;49.548;11.926;2024-02-21T05:37:33;5.90;99.90
21698;DHT22;11010;49.548;11.926;2024-02-21T05:40:00;6.10;99.90
21698;DHT22;11010;49.548;11.926;2024-02-21T05:42:28;5.90;99.90
21698;DHT22;11010;49.548;11.926;2024-02-21T05:44:55;5.90;99.90
21698;DHT22;11010;49.548;11.926;2024-02-21T05:47:22;5.90;99.90
21698;DHT22;11010;49.548;11.926;2024-02-21T05:49:49;5.80;99.90
21698;DHT22;11010;49.548;11.926;2024-02-21T05:52:20;5.80;99.90
21698;DHT22;11010;49.548;11.926;2024-02-21T05:54:47;5.90;99.90
21698;DHT22;11010;49.548;11.926;2024-02-21T05:57:18;5.80;99.90
21698;DHT22;11010;49.548;11.926;2024-02-21T05:59:45;5.80;99.90
21698;DHT22;11010;49.548;11.926;2024-02-21T06:02:12;5.80;99.90
21698;DHT22;11010;49.548;11.926;2024-02-21T06:04:40;5.90;99.90
21698;DHT22;11010;49.548;11.926;2024-02-21T06:07:10;5.90;99.90
21698;DHT22;11010;49.548;11.926;2024-02-21T06:09:37;5.90;99.90
21698;DHT22;11010;49.548;11.926;2024-02-21T06:12:04;5.90;99.90
21698;DHT22;11010;49.548;11.926;2024-02-21T06:14:32;5.90;99.90
21698;DHT22;11010;49.548;11.926;2024-02-21T06:16:59;5.90;99.90
21698;DHT22;11010;49.548;11.926;2024-02-21T06:19:26;6.00;99.90
21698;DHT22;11010;49.548;11.926;2024-02-21T06:21:54;6.00;99.90
21698;DHT22;11010;49.548;11.926;2024-02-21T06:24:21;6.00;99.90
21698;DHT22;11010;49.548;11.926;2024-02-21T06:26:48;6.00;99.90
21698;DHT22;11010;49.548;11.926;2024-02-21T06:29:16;6.00;99.90
21698;DHT22;11010;49.548;11.926;2024-02-21T06:31:43;5.90;99.90
21698;DHT22;11010;49.548;11.926;2024-02-21T06:34:10;5.90;99.90
21698;DHT22;11010;49.548;11.926;2024-02-21T06:36:38;6.00;99.90
21698;DHT22;11010;49.548;11.926;2024-02-21T06:39:05;5.90;99.90
21698;DHT22;11010;49.548;11.926;2024-02-21T06:41:34;6.00;99.90
21698;DHT22;11010;49.548;11.926;2024-02-21T06:44:02;6.00;99.90
21698;DHT22;11010;49.548;11.926;2024-02-21T06:46:30;6.00;99.90
21698;DHT22;11010;49.548;11.926;2024-02-21T06:48:59;6.00;99.90
21698;DHT22;11010;49.548;11.926;2024-02-21T06:51:27;6.10;99.90
21698;DHT22;11010;49.548;11.926;2024-02-21T06:53:55;6.00;99.90
21698;DHT22;11010;49.548;11.926;2024-02-21T06:56:25;5.90;99.90
21698;DHT22;11010;49.548;11.926;2024-02-21T06:58:56;5.90;99.90
21698;DHT22;11010;49.548;11.926;2024-02-21T07:01:24;5.90;99.90
21698;DHT22;11010;49.548;11.926;2024-02-21T07:03:52;6.00;99.90
21698;DHT22;11010;49.548;11.926;2024-02-21T07:06:19;6.00;99.90
21698;DHT22;11010;49.548;11.926;2024-02-21T07:08:46;6.00;99.90
21698;DHT22;11010;49.548;11.926;2024-02-21T07:11:14;6.00;99.90
21698;DHT22;11010;49.548;11.926;2024-02-21T07:13:41;6.10;99.90
21698;DHT22;11010;49.548;11.926;2024-02-21T07:16:09;6.00;99.90
21698;DHT22;11010;49.548;11.926;2024-02-21T07:18:36;6.10;99.90
21698;DHT22;11010;49.548;11.926;2024-02-21T07:21:03;6.20;99.90
21698;DHT22;11010;49.548;11.926;2024-02-21T07:23:31;6.10;99.90
21698;DHT22;11010;49.548;11.926;2024-02-21T07:25:58;6.10;99.90
21698;DHT22;11010;49.548;11.926;2024-02-21T07:28:25;6.10;99.90
21698;DHT22;11010;49.548;11.926;2024-02-21T07:30:52;6.10;99.90
21698;DHT22;11010;49.548;11.926;2024-02-21T07:33:20;6.20;99.90
21698;DHT22;11010;49.548;11.926;2024-02-21T07:35:47;6.20;99.90
21698;DHT22;11010;49.548;11.926;2024-02-21T07:38:14;6.10;99.90
21698;DHT22;11010;49.548;11.926;2024-02-21T07:40:42;6.20;99.90
21698;DHT22;11010;49.548;11.926;2024-02-21T07:43:11;6.20;99.90
21698;DHT22;11010;49.548;11.926;2024-02-21T07:45:38;6.30;99.90
21698;DHT22;11010;49.548;11.926;2024-02-21T07:48:06;6.40;99.90
21698;DHT22;11010;49.548;11.926;2024-02-21T07:50:34;6.30;99.90
21698;DHT22;11010;49.548;11.926;2024-02-21T07:53:01;6.30;99.90
21698;DHT22;11010;49.548;11.926;2024-02-21T07:55:29;6.40;99.90
21698;DHT22;11010;49.548;11.926;2024-02-21T07:57:56;6.40;99.90
21698;DHT22;11010;49.548;11.926;2024-02-21T08:00:24;6.60;99.90
21698;DHT22;11010;49.548;11.926;2024-02-21T08:02:51;6.50;99.90
21698;DHT22;11010;49.548;11.926;2024-02-21T08:05:18;6.50;99.90
21698;DHT22;11010;49.548;11.926;2024-02-21T08:07:45;6.50;99.90
21698;DHT22;11010;49.548;11.926;2024-02-21T08:10:13;6.50;99.90
21698;DHT22;11010;49.548;11.926;2024-02-21T08:13:03;6.50;99.90
21698;DHT22;11010;49.548;11.926;2024-02-21T08:15:30;6.50;99.90
21698;DHT22;11010;49.548;11.926;2024-02-21T08:17:57;6.60;99.90
21698;DHT22;11010;49.548;11.926;2024-02-21T08:20:27;6.50;99.90
21698;DHT22;11010;49.548;11.926;2024-02-21T08:22:54;6.50;99.90
21698;DHT22;11010;49.548;11.926;2024-02-21T08:25:22;6.60;99.90
21698;DHT22;11010;49.548;11.926;2024-02-21T08:27:49;6.70;99.90
21698;DHT22;11010;49.548;11.926;2024-02-21T08:30:18;6.70;99.90
21698;DHT22;11010;49.548;11.926;2024-02-21T08:32:47;6.80;99.90
21698;DHT22;11010;49.548;11.926;2024-02-21T08:35:14;7.00;99.90
21698;DHT22;11010;49.548;11.926;2024-02-21T08:37:41;7.10;99.90
21698;DHT22;11010;49.548;11.926;2024-02-21T08:40:10;7.10;99.90
21698;DHT22;11010;49.548;11.926;2024-02-21T08:42:41;7.20;99.90
21698;DHT22;11010;49.548;11.926;2024-02-21T08:45:10;7.30;99.90
21698;DHT22;11010;49.548;11.926;2024-02-21T08:47:40;7.30;99.90
21698;DHT22;11010;49.548;11.926;2024-02-21T08:50:08;7.30;99.90
21698;DHT22;11010;49.548;11.926;2024-02-21T08:52:53;7.30;99.90
21698;DHT22;11010;49.548;11.926;2024-02-21T08:55:21;7.40;99.90
21698;DHT22;11010;49.548;11.926;2024-02-21T08:57:49;7.20;99.90
21698;DHT22;11010;49.548;11.926;2024-02-21T09:00:17;7.40;99.90
21698;DHT22;11010;49.548;11.926;2024-02-21T09:02:44;7.40;99.90
21698;DHT22;11010;49.548;11.926;2024-02-21T09:05:12;7.40;99.90
21698;DHT22;11010;49.548;11.926;2024-02-21T09:07:39;7.50;99.90
21698;DHT22;11010;49.548;11.926;2024-02-21T09:10:07;7.60;99.90
21698;DHT22;11010;49.548;11.926;2024-02-21T09:12:34;7.70;99.90
21698;DHT22;11010;49.548;11.926;2024-02-21T09:15:02;7.90;99.90
21698;DHT22;11010;49.548;11.926;2024-02-21T09:17:29;8.10;99.90
21698;DHT22;11010;49.548;11.926;2024-02-21T09:19:57;8.00;99.90
21698;DHT22;11010;49.548;11.926;2024-02-21T09:22:27;8.20;99.90
21698;DHT22;11010;49.548;11.926;2024-02-21T09:24:54;8.10;99.90
21698;DHT22;11010;49.548;11.926;2024-02-21T09:27:22;8.00;99.90
21698;DHT22;11010;49.548;11.926;2024-02-21T09:29:49;8.00;99.90
21698;DHT22;11010;49.548;11.926;2024-02-21T09:32:18;8.10;99.90
21698;DHT22;11010;49.548;11.926;2024-02-21T09:34:46;8.20;99.90
21698;DHT22;11010;49.548;11.926;2024-02-21T09:37:13;8.30;99.90
21698;DHT22;11010;49.548;11.926;2024-02-21T09:39:40;8.30;99.90
21698;DHT22;11010;49.548;11.926;2024-02-21T09:42:11;8.30;99.90
21698;DHT22;11010;49.548;11.926;2024-02-21T09:44:39;8.10;99.90
21698;DHT22;11010;49.548;11.926;2024-02-21T09:47:12;8.20;99.90
21698;DHT22;11010;49.548;11.926;2024-02-21T09:49:44;8.40;99.90
21698;DHT22;11010;49.548;11.926;2024-02-21T09:52:13;8.40;99.90
21698;DHT22;11010;49.548;11.926;2024-02-21T09:54:42;8.40;99.90
21698;DHT22;11010;49.548;11.926;2024-02-21T09:57:12;8.40;99.90
21698;DHT22;11010;49.548;11.926;2024-02-21T09:59:40;8.40;99.90
21698;DHT22;11010;49.548;11.926;2024-02-21T10:02:09;8.70;99.90
21698;DHT22;11010;49.548;11.926;2024-02-21T10:04:40;8.80;99.90
21698;DHT22;11010;49.548;11.926;2024-02-21T10:07:08;8.90;99.90
21698;DHT22;11010;49.548;11.926;2024-02-21T10:09:36;8.90;99.90
21698;DHT22;11010;49.548;11.926;2024-02-21T10:12:10;8.90;99.90
21698;DHT22;11010;49.548;11.926;2024-02-21T10:14:39;8.80;99.90
21698;DHT22;11010;49.548;11.926;2024-02-21T10:17:06;8.90;99.90
21698;DHT22;11010;49.548;11.926;2024-02-21T10:19:38;9.00;99.90
21698;DHT22;11010;49.548;11.926;2024-02-21T10:22:08;9.40;99.90
21698;DHT22;11010;49.548;11.926;2024-02-21T10:24:37;9.60;99.90
21698;DHT22;11010;49.548;11.926;2024-02-21T10:27:10;9.90;99.90
21698;DHT22;11010;49.548;11.926;2024-02-21T10:29:40;9.90;99.90
21698;DHT22;11010;49.548;11.926;2024-02-21T10:32:08;10.50;99.90
21698;DHT22;11010;49.548;11.926;2024-02-21T10:34:38;11.00;99.90
21698;DHT22;11010;49.548;11.926;2024-02-21T10:37:07;11.50;99.90
21698;DHT22;11010;49.548;11.926;2024-02-21T10:39:38;11.20;99.90
21698;DHT22;11010;49.548;11.926;2024-02-21T10:42:05;10.90;99.90
21698;DHT22;11010;49.548;11.926;2024-02-21T10:44:36;11.00;99.90
21698;DHT22;11010;49.548;11.926;2024-02-21T10:47:08;12.00;99.90
21698;DHT22;11010;49.548;11.926;2024-02-21T10:49:41;12.80;99.90
21698;DHT22;11010;49.548;11.926;2024-02-21T10:55:00;11.70;99.90
21698;DHT22;11010;49.548;11.926;2024-02-21T10:57:31;11.70;99.90
21698;DHT22;11010;49.548;11.926;2024-02-21T10:59:59;12.10;99.90
21698;DHT22;11010;49.548;11.926;2024-02-21T11:02:28;11.50;99.90
21698;DHT22;11010;49.548;11.926;2024-02-21T11:04:58;11.60;99.90
21698;DHT22;11010;49.548;11.926;2024-02-21T11:07:26;12.10;99.90
21698;DHT22;11010;49.548;11.926;2024-02-21T11:09:54;11.50;99.90
21698;DHT22;11010;49.548;11.926;2024-02-21T11:12:23;11.50;99.90
21698;DHT22;11010;49.548;11.926;2024-02-21T11:14:51;11.50;99.90
21698;DHT22;11010;49.548;11.926;2024-02-21T11:17:19;11.80;99.90
21698;DHT22;11010;49.548;11.926;2024-02-21T11:19:53;11.90;99.90
21698;DHT22;11010;49.548;11.926;2024-02-21T11:22:21;12.00;99.90
21698;DHT22;11010;49.548;11.926;2024-02-21T11:24:52;11.60;99.90
21698;DHT22;11010;49.548;11.926;2024-02-21T11:27:22;11.90;99.90
21698;DHT22;11010;49.548;11.926;2024-02-21T11:29:57;12.20;99.90
21698;DHT22;11010;49.548;11.926;2024-02-21T11:32:26;12.50;99.90
21698;DHT22;11010;49.548;11.926;2024-02-21T11:34:58;12.20;99.90
21698;DHT22;11010;49.548;11.926;2024-02-21T11:37:34;11.70;99.90
21698;DHT22;11010;49.548;11.926;2024-02-21T11:40:04;12.20;99.90
21698;DHT22;11010;49.548;11.926;2024-02-21T11:42:34;12.10;99.90
21698;DHT22;11010;49.548;11.926;2024-02-21T11:45:02;11.70;99.90
21698;DHT22;11010;49.548;11.926;2024-02-21T11:47:29;11.80;99.90
21698;DHT22;11010;49.548;11.926;2024-02-21T11:49:57;11.90;99.90
21698;DHT22;11010;49.548;11.926;2024-02-21T11:52:25;12.50;99.90
21698;DHT22;11010;49.548;11.926;2024-02-21T11:54:54;12.00;99.90
21698;DHT22;11010;49.548;11.926;2024-02-21T11:57:23;11.70;99.90
21698;DHT22;11010;49.548;11.926;2024-02-21T11:59:51;12.00;99.90
21698;DHT22;11010;49.548;11.926;2024-02-21T12:02:26;12.30;99.90
21698;DHT22;11010;49.548;11.926;2024-02-21T12:04:53;11.90;99.90
21698;DHT22;11010;49.548;11.926;2024-02-21T12:07:22;11.90;99.90
21698;DHT22;11010;49.548;11.926;2024-02-21T12:09:51;12.00;99.90
21698;DHT22;11010;49.548;11.926;2024-02-21T12:12:22;12.00;99.90
21698;DHT22;11010;49.548;11.926;2024-02-21T12:14:57;12.10;99.90
21698;DHT22;11010;49.548;11.926;2024-02-21T12:17:27;12.50;99.90
21698;DHT22;11010;49.548;11.926;2024-02-21T12:19:54;12.60;99.90
21698;DHT22;11010;49.548;11.926;2024-02-21T12:22:22;12.70;99.90
21698;DHT22;11010;49.548;11.926;2024-02-21T12:24:49;12.60;99.90
21698;DHT22;11010;49.548;11.926;2024-02-21T12:27:16;12.30;99.90
21698;DHT22;11010;49.548;11.926;2024-02-21T12:29:43;12.50;99.90
21698;DHT22;11010;49.548;11.926;2024-02-21T12:32:11;12.30;99.90
21698;DHT22;11010;49.548;11.926;2024-02-21T12:34:38;12.00;99.90
21698;DHT22;11010;49.548;11.926;2024-02-21T12:37:21;11.80;99.90
21698;DHT22;11010;49.548;11.926;2024-02-21T12:39:48;11.30;99.90
21698;DHT22;11010;49.548;11.926;2024-02-21T12:42:16;11.40;99.90
21698;DHT22;11010;49.548;11.926;2024-02-21T12:44:44;11.40;99.90
21698;DHT22;11010;49.548;11.926;2024-02-21T12:47:12;11.20;99.90
21698;DHT22;11010;49.548;11.926;2024-02-21T12:49:40;11.30;99.90
21698;DHT22;11010;49.548;11.926;2024-02-21T12:52:11;11.20;99.90
21698;DHT22;11010;49.548;11.926;2024-02-21T12:54:40;11.20;99.90
21698;DHT22;11010;49.548;11.926;2024-02-21T12:57:09;11.30;99.90
21698;DHT22;11010;49.548;11.926;2024-02-21T12:59:36;11.80;99.90
21698;DHT22;11010;49.548;11.926;2024-02-21T13:02:04;12.20;99.90
21698;DHT22;11010;49.548;11.926;2024-02-21T13:04:31;12.60;99.90
21698;DHT22;11010;49.548;11.926;2024-02-21T13:06:58;12.50;99.90
21698;DHT22;11010;49.548;11.926;2024-02-21T13:09:26;12.20;99.90
21698;DHT22;11010;49.548;11.926;2024-02-21T13:11:53;12.60;99.90
21698;DHT22;11010;49.548;11.926;2024-02-21T13:14:21;12.30;99.90
21698;DHT22;11010;49.548;11.926;2024-02-21T13:16:49;12.30;99.90
21698;DHT22;11010;49.548;11.926;2024-02-21T13:19:17;12.30;99.90
21698;DHT22;11010;49.548;11.926;2024-02-21T13:21:45;12.50;99.90
21698;DHT22;11010;49.548;11.926;2024-02-21T13:24:13;12.30;99.90
21698;DHT22;11010;49.548;11.926;2024-02-21T13:26:40;12.30;99.90
21698;DHT22;11010;49.548;11.926;2024-02-21T13:29:07;12.20;99.90
21698;DHT22;11010;49.548;11.926;2024-02-21T13:31:34;12.20;99.90
21698;DHT22;11010;49.548;11.926;2024-02-21T13:34:02;12.40;99.90
21698;DHT22;11010;49.548;11.926;2024-02-21T13:36:30;12.20;99.90
21698;DHT22;11010;49.548;11.926;2024-02-21T13:38:57;12.60;99.90
21698;DHT22;11010;49.548;11.926;2024-02-21T13:41:25;12.70;99.90
21698;DHT22;11010;49.548;11.926;2024-02-21T13:43:52;12.50;99.90
21698;DHT22;11010;49.548;11.926;2024-02-21T13:46:19;12.80;99.90
21698;DHT22;11010;49.548;11.926;2024-02-21T13:48:47;13.00;99.90
21698;DHT22;11010;49.548;11.926;2024-02-21T13:51:14;13.20;99.90
21698;DHT22;11010;49.548;11.926;2024-02-21T13:53:43;13.60;99.90
21698;DHT22;11010;49.548;11.926;2024-02-21T13:56:10;13.30;99.90
21698;DHT22;11010;49.548;11.926;2024-02-21T13:58:38;13.50;99.90
21698;DHT22;11010;49.548;11.926;2024-02-21T14:01:05;13.00;99.90
21698;DHT22;11010;49.548;11.926;2024-02-21T14:03:32;13.50;99.90
21698;DHT22;11010;49.548;11.926;2024-02-21T14:05:59;13.80;99.90
21698;DHT22;11010;49.548;11.926;2024-02-21T14:08:27;13.90;99.90
21698;DHT22;11010;49.548;11.926;2024-02-21T14:10:54;14.20;99.90
21698;DHT22;11010;49.548;11.926;2024-02-21T14:13:23;14.40;99.90
21698;DHT22;11010;49.548;11.926;2024-02-21T14:15:50;14.10;99.90
21698;DHT22;11010;49.548;11.926;2024-02-21T14:18:17;14.10;99.90
21698;DHT22;11010;49.548;11.926;2024-02-21T14:20:45;13.90;99.90
21698;DHT22;11010;49.548;11.926;2024-02-21T14:23:14;13.30;99.90
21698;DHT22;11010;49.548;11.926;2024-02-21T14:25:41;13.00;99.90
21698;DHT22;11010;49.548;11.926;2024-02-21T14:28:09;12.70;99.90
21698;DHT22;11010;49.548;11.926;2024-02-21T14:30:36;12.90;99.90
21698;DHT22;11010;49.548;11.926;2024-02-21T14:33:04;12.60;99.90
21698;DHT22;11010;49.548;11.926;2024-02-21T14:35:31;12.40;99.90
21698;DHT22;11010;49.548;11.926;2024-02-21T14:37:59;12.50;99.90
21698;DHT22;11010;49.548;11.926;2024-02-21T14:40:28;12.20;99.90
21698;DHT22;11010;49.548;11.926;2024-02-21T14:42:57;12.40;99.90
21698;DHT22;11010;49.548;11.926;2024-02-21T14:45:24;12.10;99.90
21698;DHT22;11010;49.548;11.926;2024-02-21T14:47:51;12.00;99.90
21698;DHT22;11010;49.548;11.926;2024-02-21T14:50:19;12.00;99.90
21698;DHT22;11010;49.548;11.926;2024-02-21T14:52:46;11.90;99.90
21698;DHT22;11010;49.548;11.926;2024-02-21T14:55:14;11.80;99.90
21698;DHT22;11010;49.548;11.926;2024-02-21T14:57:41;11.70;99.90
21698;DHT22;11010;49.548;11.926;2024-02-21T15:00:10;11.80;99.90
21698;DHT22;11010;49.548;11.926;2024-02-21T15:02:39;11.70;99.90
21698;DHT22;11010;49.548;11.926;2024-02-21T15:05:06;11.70;99.90
21698;DHT22;11010;49.548;11.926;2024-02-21T15:07:34;11.70;99.90
21698;DHT22;11010;49.548;11.926;2024-02-21T15:10:01;11.70;99.90
21698;DHT22;11010;49.548;11.926;2024-02-21T15:12:30;11.70;99.90
21698;DHT22;11010;49.548;11.926;2024-02-21T15:14:58;11.70;99.90
21698;DHT22;11010;49.548;11.926;2024-02-21T15:17:26;11.60;99.90
21698;DHT22;11010;49.548;11.926;2024-02-21T15:19:53;11.70;99.90
21698;DHT22;11010;49.548;11.926;2024-02-21T15:22:22;11.50;99.90
21698;DHT22;11010;49.548;11.926;2024-02-21T15:24:50;11.50;99.90
21698;DHT22;11010;49.548;11.926;2024-02-21T15:27:18;11.40;99.90
21698;DHT22;11010;49.548;11.926;2024-02-21T15:29:45;11.30;99.90
21698;DHT22;11010;49.548;11.926;2024-02-21T15:32:13;11.30;99.90
21698;DHT22;11010;49.548;11.926;2024-02-21T15:34:40;11.20;99.90
21698;DHT22;11010;49.548;11.926;2024-02-21T15:37:09;11.10;99.90
21698;DHT22;11010;49.548;11.926;2024-02-21T15:39:37;11.10;99.90
21698;DHT22;11010;49.548;11.926;2024-02-21T15:42:05;11.10;99.90
21698;DHT22;11010;49.548;11.926;2024-02-21T15:44:32;11.20;99.90